Huvudsida
METAR-TAF:

METAR-TAF

Flygplatser :

Nawabshah, Pakistan

latitud: 26-15N, longitud: 068-22E, höjd: 37 m

Aktuellt väderrapport

Denna rapport gjordes för 1 timme och 26 minuter sedan, klockan 08:00 UTC
Vind 10 kt från syd
Temperatur 45°C
Fuktighet 23%
Tryck 1000 hPa
Sikt: 7000 m

METAR: OPNH 200800Z 18010KT 7000 NSC 45/19 Q1000

Tid: 14:26 (09:26 UTC)

Väderprognos

Denna rapport gjordes för 4 timmar och 26 minuter sedan, klockan 05:00 UTC
Prognos gäller från 20 kl. 06 UTC till 21 kl. 12 UTC
Vind 10 kt från syd i byarna ända upp till 20 kt
Sikt: 6000 m
Blir
från 20 kl. 17 UTC till 20 kl. 19 UTC
Vind 6 kt från syd
Sikt: 5000 m
torrdis
Temporärt
från 21 kl. 00 UTC till 21 kl. 04 UTC
Vind 3 kt varierande vindriktning
Sikt: 4000 m
torrdis
Från 21 kl. 0600 UTC
Vind 8 kt från syd i byarna ända upp till 18 kt
Sikt: 6000 m

TAF: OPNH 200500Z 2006/2112 17010G20KT 6000 NSC BECMG 2017/2019 18006KT 5000 HZ NSC TEMPO 2100/2104 VRB03KT 4000 HZ NSC FM210600 18008G18KT 6000 NSC

Aktuella väderrapporter och prognoser från 4000 flygplatser (METAR- och TAF-rapporter).

De tillgängliga stationerna syns som gula och röda prickar på kartan.

För musen över prickarna för att se namnen på stationerna.

Klicka sedan för att få väderrapporter och prognoser.

För att ändra kartan: Klicka på de gröna knapparna med ett svart kors på för att zooma in; den gröna knappen med ett streck på för att zooma ut; eller på de gröna pilarna för angränsande kartor.


METAR-TAF: